Wakefield, New Hampshire
Current Conditions -  °F | °C
As of 12:55 PM on Monday 24 Nov 2014 (Local Time) from KSFM Reporting Station
Overcast Overcast  
Wind Chill: 57°   Ceiling: 400
Heat Index: 57°   Visibility: 5mi
Dew Point: 54°   Wind: 8mph
Humidity: 88%   Direction: 190°S
Pressure: 29.62"   Gusts: NA
Location:  43.5632°N, 71.0133°W
Report Text: KSFM 241755Z AUTO 19007KT 5SM OVC004 14/12 A2962 RMK AO1 60037 10140 20040 57041
Loading
Personal Weather Stations






























Interactive Weather Map New forecast layout! Learn more

10-Day Weather Forecast

Advertisements
Track Severe Weather on mobile